sensor_id;sensor_type;location;lat;lon;timestamp;temperature;humidity
33831;DHT22;20137;48.834;8.732;2023-07-13T00:01:27;17.40;99.90
33831;DHT22;20137;48.834;8.732;2023-07-13T00:03:54;17.40;99.90
33831;DHT22;20137;48.834;8.732;2023-07-13T00:06:19;17.30;99.90
33831;DHT22;20137;48.834;8.732;2023-07-13T00:08:45;17.40;99.90
33831;DHT22;20137;48.834;8.732;2023-07-13T00:11:13;17.40;99.90
33831;DHT22;20137;48.834;8.732;2023-07-13T00:13:38;17.30;99.90
33831;DHT22;20137;48.834;8.732;2023-07-13T00:16:05;17.30;99.90
33831;DHT22;20137;48.834;8.732;2023-07-13T00:18:31;17.20;99.90
33831;DHT22;20137;48.834;8.732;2023-07-13T00:20:57;17.10;99.90
33831;DHT22;20137;48.834;8.732;2023-07-13T00:23:37;17.10;99.90
33831;DHT22;20137;48.834;8.732;2023-07-13T00:26:04;17.00;99.90
33831;DHT22;20137;48.834;8.732;2023-07-13T00:28:30;17.10;99.90
33831;DHT22;20137;48.834;8.732;2023-07-13T00:30:56;17.00;99.90
33831;DHT22;20137;48.834;8.732;2023-07-13T00:33:21;17.00;99.90
33831;DHT22;20137;48.834;8.732;2023-07-13T00:35:48;17.00;99.90
33831;DHT22;20137;48.834;8.732;2023-07-13T00:38:14;17.00;99.90
33831;DHT22;20137;48.834;8.732;2023-07-13T00:40:40;16.90;99.90
33831;DHT22;20137;48.834;8.732;2023-07-13T00:43:16;16.90;99.90
33831;DHT22;20137;48.834;8.732;2023-07-13T00:48:20;16.90;99.90
33831;DHT22;20137;48.834;8.732;2023-07-13T00:50:49;16.90;99.90
33831;DHT22;20137;48.834;8.732;2023-07-13T00:53:17;16.90;99.90
33831;DHT22;20137;48.834;8.732;2023-07-13T00:55:44;16.80;99.90
33831;DHT22;20137;48.834;8.732;2023-07-13T00:58:10;16.70;99.90
33831;DHT22;20137;48.834;8.732;2023-07-13T01:00:38;16.60;99.90
33831;DHT22;20137;48.834;8.732;2023-07-13T01:03:04;16.50;99.90
33831;DHT22;20137;48.834;8.732;2023-07-13T01:05:32;16.50;99.90
33831;DHT22;20137;48.834;8.732;2023-07-13T01:07:59;16.50;99.90
33831;DHT22;20137;48.834;8.732;2023-07-13T01:10:26;16.40;99.90
33831;DHT22;20137;48.834;8.732;2023-07-13T01:13:01;16.40;99.90
33831;DHT22;20137;48.834;8.732;2023-07-13T01:15:44;16.40;99.90
33831;DHT22;20137;48.834;8.732;2023-07-13T01:21:06;16.30;99.90
33831;DHT22;20137;48.834;8.732;2023-07-13T01:23:32;16.20;99.90
33831;DHT22;20137;48.834;8.732;2023-07-13T01:26:04;16.20;99.90
33831;DHT22;20137;48.834;8.732;2023-07-13T01:28:30;16.10;99.90
33831;DHT22;20137;48.834;8.732;2023-07-13T01:30:59;16.10;99.90
33831;DHT22;20137;48.834;8.732;2023-07-13T01:33:31;15.90;99.90
33831;DHT22;20137;48.834;8.732;2023-07-13T01:35:57;15.90;99.90
33831;DHT22;20137;48.834;8.732;2023-07-13T01:38:24;15.80;99.90
33831;DHT22;20137;48.834;8.732;2023-07-13T01:40:52;15.90;99.90
33831;DHT22;20137;48.834;8.732;2023-07-13T01:43:18;15.90;99.90
33831;DHT22;20137;48.834;8.732;2023-07-13T01:45:45;16.00;99.90
33831;DHT22;20137;48.834;8.732;2023-07-13T01:48:11;16.00;99.90
33831;DHT22;20137;48.834;8.732;2023-07-13T01:50:37;16.00;99.90
33831;DHT22;20137;48.834;8.732;2023-07-13T01:53:04;16.00;99.90
33831;DHT22;20137;48.834;8.732;2023-07-13T01:55:30;15.90;99.90
33831;DHT22;20137;48.834;8.732;2023-07-13T01:57:56;15.90;99.90
33831;DHT22;20137;48.834;8.732;2023-07-13T02:00:22;15.80;99.90
33831;DHT22;20137;48.834;8.732;2023-07-13T02:02:48;15.80;99.90
33831;DHT22;20137;48.834;8.732;2023-07-13T02:05:14;15.70;99.90
33831;DHT22;20137;48.834;8.732;2023-07-13T02:07:40;15.60;99.90
33831;DHT22;20137;48.834;8.732;2023-07-13T02:10:08;15.60;99.90
33831;DHT22;20137;48.834;8.732;2023-07-13T02:12:34;15.50;99.90
33831;DHT22;20137;48.834;8.732;2023-07-13T02:15:01;15.50;99.90
33831;DHT22;20137;48.834;8.732;2023-07-13T02:17:27;15.50;99.90
33831;DHT22;20137;48.834;8.732;2023-07-13T02:19:53;15.60;99.90
33831;DHT22;20137;48.834;8.732;2023-07-13T02:22:18;15.50;99.90
33831;DHT22;20137;48.834;8.732;2023-07-13T02:24:44;15.40;99.90
33831;DHT22;20137;48.834;8.732;2023-07-13T02:27:10;15.40;99.90
33831;DHT22;20137;48.834;8.732;2023-07-13T02:29:36;15.40;99.90
33831;DHT22;20137;48.834;8.732;2023-07-13T02:32:01;15.30;99.90
33831;DHT22;20137;48.834;8.732;2023-07-13T02:34:27;15.30;99.90
33831;DHT22;20137;48.834;8.732;2023-07-13T02:36:53;15.30;99.90
33831;DHT22;20137;48.834;8.732;2023-07-13T02:39:18;15.40;99.90
33831;DHT22;20137;48.834;8.732;2023-07-13T02:41:44;15.40;99.90
33831;DHT22;20137;48.834;8.732;2023-07-13T02:44:12;15.50;99.90
33831;DHT22;20137;48.834;8.732;2023-07-13T02:46:39;15.50;99.90
33831;DHT22;20137;48.834;8.732;2023-07-13T02:49:05;15.50;99.90
33831;DHT22;20137;48.834;8.732;2023-07-13T02:51:32;15.50;99.90
33831;DHT22;20137;48.834;8.732;2023-07-13T02:54:03;15.50;99.90
33831;DHT22;20137;48.834;8.732;2023-07-13T02:56:30;15.50;99.90
33831;DHT22;20137;48.834;8.732;2023-07-13T02:58:57;15.50;99.90
33831;DHT22;20137;48.834;8.732;2023-07-13T03:01:23;15.40;99.90
33831;DHT22;20137;48.834;8.732;2023-07-13T03:03:50;15.40;99.90
33831;DHT22;20137;48.834;8.732;2023-07-13T03:06:17;15.40;99.90
33831;DHT22;20137;48.834;8.732;2023-07-13T03:08:44;15.40;99.90
33831;DHT22;20137;48.834;8.732;2023-07-13T03:11:15;15.40;99.90
33831;DHT22;20137;48.834;8.732;2023-07-13T03:13:42;15.30;99.90
33831;DHT22;20137;48.834;8.732;2023-07-13T03:16:09;15.30;99.90
33831;DHT22;20137;48.834;8.732;2023-07-13T03:18:36;15.20;99.90
33831;DHT22;20137;48.834;8.732;2023-07-13T03:21:03;15.30;99.90
33831;DHT22;20137;48.834;8.732;2023-07-13T03:23:29;15.20;99.90
33831;DHT22;20137;48.834;8.732;2023-07-13T03:26:07;15.20;99.90
33831;DHT22;20137;48.834;8.732;2023-07-13T03:28:33;15.10;99.90
33831;DHT22;20137;48.834;8.732;2023-07-13T03:31:07;15.10;99.90
33831;DHT22;20137;48.834;8.732;2023-07-13T03:33:33;15.00;99.90
33831;DHT22;20137;48.834;8.732;2023-07-13T03:35:59;15.00;99.90
33831;DHT22;20137;48.834;8.732;2023-07-13T03:38:25;15.10;99.90
33831;DHT22;20137;48.834;8.732;2023-07-13T03:40:52;15.00;99.90
33831;DHT22;20137;48.834;8.732;2023-07-13T03:43:17;15.00;99.90
33831;DHT22;20137;48.834;8.732;2023-07-13T03:45:43;15.10;99.90
33831;DHT22;20137;48.834;8.732;2023-07-13T03:48:09;15.10;99.90
33831;DHT22;20137;48.834;8.732;2023-07-13T03:50:35;15.20;99.90
33831;DHT22;20137;48.834;8.732;2023-07-13T03:53:01;15.20;99.90
33831;DHT22;20137;48.834;8.732;2023-07-13T03:55:27;15.30;99.90
33831;DHT22;20137;48.834;8.732;2023-07-13T03:57:59;15.40;99.90
33831;DHT22;20137;48.834;8.732;2023-07-13T04:00:25;15.40;99.90
33831;DHT22;20137;48.834;8.732;2023-07-13T04:02:51;15.30;99.90
33831;DHT22;20137;48.834;8.732;2023-07-13T04:05:17;15.40;99.90
33831;DHT22;20137;48.834;8.732;2023-07-13T04:07:43;15.30;99.90
33831;DHT22;20137;48.834;8.732;2023-07-13T04:10:09;15.30;99.90
33831;DHT22;20137;48.834;8.732;2023-07-13T04:12:35;15.30;99.90
33831;DHT22;20137;48.834;8.732;2023-07-13T04:15:00;15.40;99.90
33831;DHT22;20137;48.834;8.732;2023-07-13T04:17:26;15.40;99.90
33831;DHT22;20137;48.834;8.732;2023-07-13T04:19:52;15.50;99.90
33831;DHT22;20137;48.834;8.732;2023-07-13T04:22:18;15.50;99.90
33831;DHT22;20137;48.834;8.732;2023-07-13T04:24:43;15.60;99.90
33831;DHT22;20137;48.834;8.732;2023-07-13T04:27:10;15.70;99.90
33831;DHT22;20137;48.834;8.732;2023-07-13T04:29:35;15.80;99.90
33831;DHT22;20137;48.834;8.732;2023-07-13T04:32:01;15.90;99.90
33831;DHT22;20137;48.834;8.732;2023-07-13T04:34:27;16.00;99.90
33831;DHT22;20137;48.834;8.732;2023-07-13T04:36:52;16.00;99.90
33831;DHT22;20137;48.834;8.732;2023-07-13T04:39:18;16.10;99.90
33831;DHT22;20137;48.834;8.732;2023-07-13T04:41:44;16.20;99.90
33831;DHT22;20137;48.834;8.732;2023-07-13T04:44:10;16.30;99.90
33831;DHT22;20137;48.834;8.732;2023-07-13T04:46:35;16.50;99.90
33831;DHT22;20137;48.834;8.732;2023-07-13T04:49:03;17.10;99.90
33831;DHT22;20137;48.834;8.732;2023-07-13T04:51:29;17.80;99.90
33831;DHT22;20137;48.834;8.732;2023-07-13T04:53:55;18.60;99.90
33831;DHT22;20137;48.834;8.732;2023-07-13T04:56:21;19.00;99.90
33831;DHT22;20137;48.834;8.732;2023-07-13T04:58:47;19.50;99.90
33831;DHT22;20137;48.834;8.732;2023-07-13T05:01:12;19.90;99.20
33831;DHT22;20137;48.834;8.732;2023-07-13T05:03:39;19.90;99.30
33831;DHT22;20137;48.834;8.732;2023-07-13T05:06:06;20.10;98.80
33831;DHT22;20137;48.834;8.732;2023-07-13T05:08:32;20.00;98.70
33831;DHT22;20137;48.834;8.732;2023-07-13T05:11:00;20.10;98.80
33831;DHT22;20137;48.834;8.732;2023-07-13T05:13:26;20.10;98.70
33831;DHT22;20137;48.834;8.732;2023-07-13T05:15:57;19.60;99.20
33831;DHT22;20137;48.834;8.732;2023-07-13T05:18:24;19.20;99.90
33831;DHT22;20137;48.834;8.732;2023-07-13T05:21:08;18.80;99.90
33831;DHT22;20137;48.834;8.732;2023-07-13T05:23:35;18.70;99.90
33831;DHT22;20137;48.834;8.732;2023-07-13T05:26:02;18.70;99.90
33831;DHT22;20137;48.834;8.732;2023-07-13T05:28:29;18.50;99.90
33831;DHT22;20137;48.834;8.732;2023-07-13T05:30:55;18.50;99.90
33831;DHT22;20137;48.834;8.732;2023-07-13T05:33:21;18.50;99.90
33831;DHT22;20137;48.834;8.732;2023-07-13T05:35:50;18.60;99.90
33831;DHT22;20137;48.834;8.732;2023-07-13T05:38:16;18.90;99.90
33831;DHT22;20137;48.834;8.732;2023-07-13T05:40:46;19.10;99.90
33831;DHT22;20137;48.834;8.732;2023-07-13T05:43:12;19.20;99.90
33831;DHT22;20137;48.834;8.732;2023-07-13T05:45:41;19.20;99.90
33831;DHT22;20137;48.834;8.732;2023-07-13T05:48:09;19.30;99.90
33831;DHT22;20137;48.834;8.732;2023-07-13T05:50:35;19.40;99.90
33831;DHT22;20137;48.834;8.732;2023-07-13T05:53:01;19.50;99.90
33831;DHT22;20137;48.834;8.732;2023-07-13T05:55:27;19.60;98.90
33831;DHT22;20137;48.834;8.732;2023-07-13T05:57:52;19.40;99.30
33831;DHT22;20137;48.834;8.732;2023-07-13T06:00:18;19.30;99.10
33831;DHT22;20137;48.834;8.732;2023-07-13T06:02:44;19.00;99.90
33831;DHT22;20137;48.834;8.732;2023-07-13T06:05:10;18.80;99.90
33831;DHT22;20137;48.834;8.732;2023-07-13T06:07:35;18.80;99.90
33831;DHT22;20137;48.834;8.732;2023-07-13T06:10:01;19.10;99.90
33831;DHT22;20137;48.834;8.732;2023-07-13T06:12:27;19.30;99.90
33831;DHT22;20137;48.834;8.732;2023-07-13T06:14:53;19.50;99.00
33831;DHT22;20137;48.834;8.732;2023-07-13T06:17:19;19.60;99.10
33831;DHT22;20137;48.834;8.732;2023-07-13T06:19:45;19.90;98.80
33831;DHT22;20137;48.834;8.732;2023-07-13T06:22:10;20.10;97.80
33831;DHT22;20137;48.834;8.732;2023-07-13T06:24:36;20.10;97.70
33831;DHT22;20137;48.834;8.732;2023-07-13T06:27:02;20.30;98.10
33831;DHT22;20137;48.834;8.732;2023-07-13T06:29:28;20.50;97.60
33831;DHT22;20137;48.834;8.732;2023-07-13T06:31:53;20.70;97.40
33831;DHT22;20137;48.834;8.732;2023-07-13T06:34:19;20.80;97.60
33831;DHT22;20137;48.834;8.732;2023-07-13T06:36:45;20.90;97.70
33831;DHT22;20137;48.834;8.732;2023-07-13T06:39:11;20.80;96.40
33831;DHT22;20137;48.834;8.732;2023-07-13T06:41:37;20.70;96.40
33831;DHT22;20137;48.834;8.732;2023-07-13T06:44:04;20.60;96.70
33831;DHT22;20137;48.834;8.732;2023-07-13T06:46:30;20.40;96.70
33831;DHT22;20137;48.834;8.732;2023-07-13T06:48:56;20.40;97.30
33831;DHT22;20137;48.834;8.732;2023-07-13T06:51:21;20.50;96.30
33831;DHT22;20137;48.834;8.732;2023-07-13T06:53:47;20.40;95.90
33831;DHT22;20137;48.834;8.732;2023-07-13T06:56:13;20.50;95.30
33831;DHT22;20137;48.834;8.732;2023-07-13T06:58:39;20.40;96.10
33831;DHT22;20137;48.834;8.732;2023-07-13T07:01:05;20.40;96.80
33831;DHT22;20137;48.834;8.732;2023-07-13T07:03:31;20.40;96.00
33831;DHT22;20137;48.834;8.732;2023-07-13T07:06:02;20.40;96.20
33831;DHT22;20137;48.834;8.732;2023-07-13T07:08:28;20.40;96.20
33831;DHT22;20137;48.834;8.732;2023-07-13T07:10:54;20.50;95.40
33831;DHT22;20137;48.834;8.732;2023-07-13T07:13:20;20.50;94.80
33831;DHT22;20137;48.834;8.732;2023-07-13T07:15:45;20.40;95.20
33831;DHT22;20137;48.834;8.732;2023-07-13T07:18:11;20.50;95.60
33831;DHT22;20137;48.834;8.732;2023-07-13T07:20:37;20.60;96.10
33831;DHT22;20137;48.834;8.732;2023-07-13T07:23:03;20.60;95.40
33831;DHT22;20137;48.834;8.732;2023-07-13T07:25:28;20.60;94.80
33831;DHT22;20137;48.834;8.732;2023-07-13T07:27:57;20.60;93.90
33831;DHT22;20137;48.834;8.732;2023-07-13T07:30:24;20.50;94.70
33831;DHT22;20137;48.834;8.732;2023-07-13T07:32:50;20.50;94.30
33831;DHT22;20137;48.834;8.732;2023-07-13T07:35:15;20.40;95.10
33831;DHT22;20137;48.834;8.732;2023-07-13T07:37:41;20.70;94.40
33831;DHT22;20137;48.834;8.732;2023-07-13T07:40:08;20.80;92.40
33831;DHT22;20137;48.834;8.732;2023-07-13T07:42:33;20.90;93.50
33831;DHT22;20137;48.834;8.732;2023-07-13T07:44:59;20.80;92.90
33831;DHT22;20137;48.834;8.732;2023-07-13T07:47:26;20.70;92.90
33831;DHT22;20137;48.834;8.732;2023-07-13T07:49:52;20.60;93.20
33831;DHT22;20137;48.834;8.732;2023-07-13T07:52:18;20.50;94.10
33831;DHT22;20137;48.834;8.732;2023-07-13T07:54:44;20.40;94.70
33831;DHT22;20137;48.834;8.732;2023-07-13T07:57:10;20.40;94.20
33831;DHT22;20137;48.834;8.732;2023-07-13T07:59:37;20.30;93.80
33831;DHT22;20137;48.834;8.732;2023-07-13T08:02:03;20.20;94.20
33831;DHT22;20137;48.834;8.732;2023-07-13T08:04:29;20.30;94.40
33831;DHT22;20137;48.834;8.732;2023-07-13T08:06:55;20.20;94.20
33831;DHT22;20137;48.834;8.732;2023-07-13T08:09:21;20.30;93.90
33831;DHT22;20137;48.834;8.732;2023-07-13T08:11:47;20.40;94.20
33831;DHT22;20137;48.834;8.732;2023-07-13T08:14:13;20.50;94.20
33831;DHT22;20137;48.834;8.732;2023-07-13T08:16:39;20.50;94.30
33831;DHT22;20137;48.834;8.732;2023-07-13T08:19:05;20.60;94.40
33831;DHT22;20137;48.834;8.732;2023-07-13T08:21:31;20.60;93.60
33831;DHT22;20137;48.834;8.732;2023-07-13T08:23:57;20.60;93.50
33831;DHT22;20137;48.834;8.732;2023-07-13T08:26:23;20.50;93.70
33831;DHT22;20137;48.834;8.732;2023-07-13T08:28:49;20.70;95.00
33831;DHT22;20137;48.834;8.732;2023-07-13T08:31:15;20.90;93.40
33831;DHT22;20137;48.834;8.732;2023-07-13T08:33:41;21.00;93.40
33831;DHT22;20137;48.834;8.732;2023-07-13T08:36:07;20.80;93.40
33831;DHT22;20137;48.834;8.732;2023-07-13T08:38:33;20.80;94.70
33831;DHT22;20137;48.834;8.732;2023-07-13T08:40:59;20.80;94.10
33831;DHT22;20137;48.834;8.732;2023-07-13T08:43:35;21.10;94.60
33831;DHT22;20137;48.834;8.732;2023-07-13T08:46:15;21.40;93.60
33831;DHT22;20137;48.834;8.732;2023-07-13T08:48:46;21.20;93.20
33831;DHT22;20137;48.834;8.732;2023-07-13T08:51:28;20.70;93.80
33831;DHT22;20137;48.834;8.732;2023-07-13T08:54:00;20.90;94.30
33831;DHT22;20137;48.834;8.732;2023-07-13T08:56:28;21.00;94.10
33831;DHT22;20137;48.834;8.732;2023-07-13T08:59:06;21.10;94.70
33831;DHT22;20137;48.834;8.732;2023-07-13T09:04:56;21.30;94.60
33831;DHT22;20137;48.834;8.732;2023-07-13T09:10:14;21.60;95.20
33831;DHT22;20137;48.834;8.732;2023-07-13T09:13:15;21.50;94.70
33831;DHT22;20137;48.834;8.732;2023-07-13T09:15:46;21.80;94.60
33831;DHT22;20137;48.834;8.732;2023-07-13T09:18:27;22.00;94.00
33831;DHT22;20137;48.834;8.732;2023-07-13T09:21:09;21.60;95.20
33831;DHT22;20137;48.834;8.732;2023-07-13T09:23:36;21.50;94.30
33831;DHT22;20137;48.834;8.732;2023-07-13T09:26:12;21.50;94.00
33831;DHT22;20137;48.834;8.732;2023-07-13T09:28:42;21.30;94.30
33831;DHT22;20137;48.834;8.732;2023-07-13T09:33:42;21.60;96.00
33831;DHT22;20137;48.834;8.732;2023-07-13T09:36:31;22.00;94.40
33831;DHT22;20137;48.834;8.732;2023-07-13T09:39:22;22.00;94.00
33831;DHT22;20137;48.834;8.732;2023-07-13T09:44:31;22.60;93.30
33831;DHT22;20137;48.834;8.732;2023-07-13T09:46:59;22.60;92.80
33831;DHT22;20137;48.834;8.732;2023-07-13T09:49:31;22.80;91.60
33831;DHT22;20137;48.834;8.732;2023-07-13T09:52:01;23.00;91.30
33831;DHT22;20137;48.834;8.732;2023-07-13T09:54:28;23.00;91.90
33831;DHT22;20137;48.834;8.732;2023-07-13T09:56:57;22.90;91.40
33831;DHT22;20137;48.834;8.732;2023-07-13T09:59:32;22.40;92.30
33831;DHT22;20137;48.834;8.732;2023-07-13T10:01:58;22.10;92.30
33831;DHT22;20137;48.834;8.732;2023-07-13T10:04:33;21.80;93.70
33831;DHT22;20137;48.834;8.732;2023-07-13T10:07:07;21.70;94.20
33831;DHT22;20137;48.834;8.732;2023-07-13T10:09:33;21.80;93.10
33831;DHT22;20137;48.834;8.732;2023-07-13T10:11:59;21.80;93.70
33831;DHT22;20137;48.834;8.732;2023-07-13T10:14:25;21.70;93.40
33831;DHT22;20137;48.834;8.732;2023-07-13T10:16:59;21.60;93.70
33831;DHT22;20137;48.834;8.732;2023-07-13T10:19:31;21.60;93.70
33831;DHT22;20137;48.834;8.732;2023-07-13T10:22:26;21.70;94.20
33831;DHT22;20137;48.834;8.732;2023-07-13T10:24:53;22.00;93.10
33831;DHT22;20137;48.834;8.732;2023-07-13T10:27:35;22.20;93.30
33831;DHT22;20137;48.834;8.732;2023-07-13T10:30:16;22.20;92.90
33831;DHT22;20137;48.834;8.732;2023-07-13T10:32:43;21.90;93.30
33831;DHT22;20137;48.834;8.732;2023-07-13T10:35:15;21.80;92.60
33831;DHT22;20137;48.834;8.732;2023-07-13T10:37:53;22.00;93.60
33831;DHT22;20137;48.834;8.732;2023-07-13T10:40:26;22.40;92.90
33831;DHT22;20137;48.834;8.732;2023-07-13T10:42:56;22.60;91.20
33831;DHT22;20137;48.834;8.732;2023-07-13T10:45:24;22.50;91.30
33831;DHT22;20137;48.834;8.732;2023-07-13T10:47:52;22.50;91.10
33831;DHT22;20137;48.834;8.732;2023-07-13T10:50:26;22.50;91.80
33831;DHT22;20137;48.834;8.732;2023-07-13T10:53:02;22.50;90.80
33831;DHT22;20137;48.834;8.732;2023-07-13T10:55:38;22.50;90.90
33831;DHT22;20137;48.834;8.732;2023-07-13T10:58:32;22.30;91.40
33831;DHT22;20137;48.834;8.732;2023-07-13T11:03:56;22.50;90.90
33831;DHT22;20137;48.834;8.732;2023-07-13T11:09:39;22.20;91.90
33831;DHT22;20137;48.834;8.732;2023-07-13T11:12:48;22.30;91.60
33831;DHT22;20137;48.834;8.732;2023-07-13T11:15:14;22.70;91.40
33831;DHT22;20137;48.834;8.732;2023-07-13T11:17:53;22.80;90.70
33831;DHT22;20137;48.834;8.732;2023-07-13T11:20:38;22.80;89.60
33831;DHT22;20137;48.834;8.732;2023-07-13T11:25:41;22.70;91.30
33831;DHT22;20137;48.834;8.732;2023-07-13T11:30:40;22.60;91.00
33831;DHT22;20137;48.834;8.732;2023-07-13T11:35:47;22.70;91.40
33831;DHT22;20137;48.834;8.732;2023-07-13T11:38:17;22.80;89.30
33831;DHT22;20137;48.834;8.732;2023-07-13T11:40:46;22.70;89.60
33831;DHT22;20137;48.834;8.732;2023-07-13T11:43:15;22.80;90.70
33831;DHT22;20137;48.834;8.732;2023-07-13T11:45:42;23.00;91.20
33831;DHT22;20137;48.834;8.732;2023-07-13T11:48:22;23.00;88.10
33831;DHT22;20137;48.834;8.732;2023-07-13T11:50:54;22.90;89.40
33831;DHT22;20137;48.834;8.732;2023-07-13T11:53:21;22.90;89.40
33831;DHT22;20137;48.834;8.732;2023-07-13T11:55:47;22.90;86.70
33831;DHT22;20137;48.834;8.732;2023-07-13T11:58:19;23.10;86.80
33831;DHT22;20137;48.834;8.732;2023-07-13T12:00:49;23.10;88.00
33831;DHT22;20137;48.834;8.732;2023-07-13T12:03:18;23.00;86.80
33831;DHT22;20137;48.834;8.732;2023-07-13T12:06:03;23.00;89.30
33831;DHT22;20137;48.834;8.732;2023-07-13T12:08:31;23.40;89.50
33831;DHT22;20137;48.834;8.732;2023-07-13T12:11:15;23.70;86.50
33831;DHT22;20137;48.834;8.732;2023-07-13T12:13:46;23.40;88.20
33831;DHT22;20137;48.834;8.732;2023-07-13T12:18:46;23.40;87.90
33831;DHT22;20137;48.834;8.732;2023-07-13T12:21:16;23.40;85.90
33831;DHT22;20137;48.834;8.732;2023-07-13T12:23:44;23.30;88.30
33831;DHT22;20137;48.834;8.732;2023-07-13T12:26:10;23.10;86.80
33831;DHT22;20137;48.834;8.732;2023-07-13T12:28:46;23.30;89.50
33831;DHT22;20137;48.834;8.732;2023-07-13T12:31:34;23.40;86.70
33831;DHT22;20137;48.834;8.732;2023-07-13T12:34:21;23.30;88.50
33831;DHT22;20137;48.834;8.732;2023-07-13T12:39:32;23.50;87.10
33831;DHT22;20137;48.834;8.732;2023-07-13T12:42:22;23.70;86.60
33831;DHT22;20137;48.834;8.732;2023-07-13T12:45:01;23.60;89.10
33831;DHT22;20137;48.834;8.732;2023-07-13T12:47:28;23.40;87.10
33831;DHT22;20137;48.834;8.732;2023-07-13T12:49:56;23.20;87.70
33831;DHT22;20137;48.834;8.732;2023-07-13T12:52:31;23.10;87.80
33831;DHT22;20137;48.834;8.732;2023-07-13T12:55:04;23.30;88.20
33831;DHT22;20137;48.834;8.732;2023-07-13T12:57:30;23.50;88.00
33831;DHT22;20137;48.834;8.732;2023-07-13T12:59:57;23.30;88.60
33831;DHT22;20137;48.834;8.732;2023-07-13T13:02:31;23.50;86.90
33831;DHT22;20137;48.834;8.732;2023-07-13T13:04:58;23.60;85.10
33831;DHT22;20137;48.834;8.732;2023-07-13T13:07:25;23.60;84.60
33831;DHT22;20137;48.834;8.732;2023-07-13T13:09:51;23.40;85.20
33831;DHT22;20137;48.834;8.732;2023-07-13T13:12:19;23.40;85.70
33831;DHT22;20137;48.834;8.732;2023-07-13T13:14:45;23.60;85.30
33831;DHT22;20137;48.834;8.732;2023-07-13T13:17:23;23.40;88.60
33831;DHT22;20137;48.834;8.732;2023-07-13T13:19:50;23.70;85.20
33831;DHT22;20137;48.834;8.732;2023-07-13T13:22:19;23.80;87.80
33831;DHT22;20137;48.834;8.732;2023-07-13T13:24:44;24.10;88.70
33831;DHT22;20137;48.834;8.732;2023-07-13T13:27:18;24.30;88.90
33831;DHT22;20137;48.834;8.732;2023-07-13T13:29:45;24.10;88.10
33831;DHT22;20137;48.834;8.732;2023-07-13T13:32:14;24.00;89.40
33831;DHT22;20137;48.834;8.732;2023-07-13T13:34:41;23.80;87.70
33831;DHT22;20137;48.834;8.732;2023-07-13T13:37:28;23.60;88.20
33831;DHT22;20137;48.834;8.732;2023-07-13T13:39:53;23.40;87.50
33831;DHT22;20137;48.834;8.732;2023-07-13T13:42:20;23.40;88.60
33831;DHT22;20137;48.834;8.732;2023-07-13T13:44:50;23.40;89.00
33831;DHT22;20137;48.834;8.732;2023-07-13T13:47:31;23.70;88.00
33831;DHT22;20137;48.834;8.732;2023-07-13T13:49:58;23.50;86.30
33831;DHT22;20137;48.834;8.732;2023-07-13T13:52:24;23.80;89.60
33831;DHT22;20137;48.834;8.732;2023-07-13T13:54:51;24.20;87.90
33831;DHT22;20137;48.834;8.732;2023-07-13T13:57:22;24.50;87.80
33831;DHT22;20137;48.834;8.732;2023-07-13T13:59:48;24.30;86.20
33831;DHT22;20137;48.834;8.732;2023-07-13T14:02:41;23.90;86.70
33831;DHT22;20137;48.834;8.732;2023-07-13T14:05:13;24.20;86.70
33831;DHT22;20137;48.834;8.732;2023-07-13T14:07:38;23.90;85.20
33831;DHT22;20137;48.834;8.732;2023-07-13T14:10:14;24.00;86.00
33831;DHT22;20137;48.834;8.732;2023-07-13T14:12:42;24.10;86.30
33831;DHT22;20137;48.834;8.732;2023-07-13T14:15:20;24.00;85.40
33831;DHT22;20137;48.834;8.732;2023-07-13T14:17:46;23.60;85.50
33831;DHT22;20137;48.834;8.732;2023-07-13T14:20:16;23.70;86.20
33831;DHT22;20137;48.834;8.732;2023-07-13T14:22:42;23.70;87.20
33831;DHT22;20137;48.834;8.732;2023-07-13T14:25:15;23.80;88.00
33831;DHT22;20137;48.834;8.732;2023-07-13T14:27:42;23.90;87.00
33831;DHT22;20137;48.834;8.732;2023-07-13T14:30:18;24.20;87.40
33831;DHT22;20137;48.834;8.732;2023-07-13T14:32:44;24.40;85.00
33831;DHT22;20137;48.834;8.732;2023-07-13T14:35:15;24.10;86.70
33831;DHT22;20137;48.834;8.732;2023-07-13T14:37:41;24.00;88.40
33831;DHT22;20137;48.834;8.732;2023-07-13T14:40:19;24.10;87.60
33831;DHT22;20137;48.834;8.732;2023-07-13T14:42:47;24.20;85.80
33831;DHT22;20137;48.834;8.732;2023-07-13T14:45:18;24.10;88.30
33831;DHT22;20137;48.834;8.732;2023-07-13T14:47:45;24.00;86.30
33831;DHT22;20137;48.834;8.732;2023-07-13T14:50:18;23.70;86.20
33831;DHT22;20137;48.834;8.732;2023-07-13T14:52:45;23.70;86.00
33831;DHT22;20137;48.834;8.732;2023-07-13T14:55:16;24.00;85.50
33831;DHT22;20137;48.834;8.732;2023-07-13T14:57:42;24.00;85.90
33831;DHT22;20137;48.834;8.732;2023-07-13T15:00:21;24.00;85.40
33831;DHT22;20137;48.834;8.732;2023-07-13T15:02:51;24.10;85.90
33831;DHT22;20137;48.834;8.732;2023-07-13T15:05:26;23.90;84.70
33831;DHT22;20137;48.834;8.732;2023-07-13T15:07:57;23.70;84.70
33831;DHT22;20137;48.834;8.732;2023-07-13T15:10:26;23.40;85.50
33831;DHT22;20137;48.834;8.732;2023-07-13T15:12:52;23.30;85.10
33831;DHT22;20137;48.834;8.732;2023-07-13T15:15:19;23.30;86.10
33831;DHT22;20137;48.834;8.732;2023-07-13T15:17:47;23.20;86.10
33831;DHT22;20137;48.834;8.732;2023-07-13T15:20:24;23.30;86.80
33831;DHT22;20137;48.834;8.732;2023-07-13T15:22:50;23.60;85.70
33831;DHT22;20137;48.834;8.732;2023-07-13T15:25:22;23.70;85.80
33831;DHT22;20137;48.834;8.732;2023-07-13T15:27:50;23.50;84.40
33831;DHT22;20137;48.834;8.732;2023-07-13T15:30:16;23.70;85.90
33831;DHT22;20137;48.834;8.732;2023-07-13T15:32:43;23.70;85.80
33831;DHT22;20137;48.834;8.732;2023-07-13T15:35:21;23.70;85.50
33831;DHT22;20137;48.834;8.732;2023-07-13T15:37:50;23.70;85.40
33831;DHT22;20137;48.834;8.732;2023-07-13T15:40:17;23.70;86.90
33831;DHT22;20137;48.834;8.732;2023-07-13T15:42:44;24.10;86.70
33831;DHT22;20137;48.834;8.732;2023-07-13T15:45:23;24.20;84.70
33831;DHT22;20137;48.834;8.732;2023-07-13T15:47:53;24.20;85.40
33831;DHT22;20137;48.834;8.732;2023-07-13T15:50:21;24.30;84.20
33831;DHT22;20137;48.834;8.732;2023-07-13T15:52:52;24.10;84.70
33831;DHT22;20137;48.834;8.732;2023-07-13T15:55:20;23.90;86.30
33831;DHT22;20137;48.834;8.732;2023-07-13T15:57:51;24.10;84.90
33831;DHT22;20137;48.834;8.732;2023-07-13T16:00:25;23.70;85.40
33831;DHT22;20137;48.834;8.732;2023-07-13T16:02:52;23.30;85.30
33831;DHT22;20137;48.834;8.732;2023-07-13T16:05:20;23.00;86.40
33831;DHT22;20137;48.834;8.732;2023-07-13T16:07:48;22.90;87.10
33831;DHT22;20137;48.834;8.732;2023-07-13T16:10:38;23.10;85.90
33831;DHT22;20137;48.834;8.732;2023-07-13T16:13:13;23.20;85.50
33831;DHT22;20137;48.834;8.732;2023-07-13T16:15:39;23.50;84.60
33831;DHT22;20137;48.834;8.732;2023-07-13T16:18:10;23.60;85.20